createdAt,value
2019-05-25T00:02:25.340Z,52.40
2019-05-25T00:07:28.988Z,52.30
2019-05-25T00:12:32.692Z,52.20
2019-05-25T00:17:36.404Z,52.20
2019-05-25T00:22:40.069Z,52.30
2019-05-25T00:27:43.731Z,52.30
2019-05-25T00:32:47.605Z,52.30
2019-05-25T00:37:51.300Z,52.30
2019-05-25T00:42:55.076Z,52.30
2019-05-25T00:47:58.696Z,52.30
2019-05-25T00:53:05.202Z,52.30
2019-05-25T00:58:08.857Z,53.10
2019-05-25T01:03:12.625Z,52.60
2019-05-25T01:08:16.371Z,52.70
2019-05-25T01:13:20.061Z,52.80
2019-05-25T01:18:23.711Z,52.70
2019-05-25T01:23:27.428Z,52.80
2019-05-25T01:28:31.134Z,52.70
2019-05-25T01:33:34.825Z,53.00
2019-05-25T01:38:38.459Z,53.00
2019-05-25T01:43:42.227Z,52.90
2019-05-25T01:48:45.916Z,53.40
2019-05-25T01:53:49.593Z,53.00
2019-05-25T01:58:53.388Z,53.10
2019-05-25T02:03:57.182Z,52.90
2019-05-25T02:09:00.898Z,52.90
2019-05-25T02:14:06.211Z,53.10
2019-05-25T02:19:09.842Z,53.00
2019-05-25T02:24:13.486Z,53.20
2019-05-25T02:29:17.114Z,53.00
2019-05-25T02:34:20.804Z,53.00
2019-05-25T02:39:24.491Z,53.20
2019-05-25T02:44:28.125Z,53.10
2019-05-25T02:49:31.897Z,52.80
2019-05-25T02:54:36.773Z,53.10
2019-05-25T02:59:40.407Z,52.90
2019-05-25T03:04:44.121Z,53.10
2019-05-25T03:09:48.035Z,53.00
2019-05-25T03:14:51.711Z,53.00
2019-05-25T03:19:55.370Z,53.00
2019-05-25T03:24:58.984Z,53.10
2019-05-25T03:30:03.191Z,53.00
2019-05-25T03:35:06.974Z,53.00
2019-05-25T03:40:10.864Z,53.00
2019-05-25T03:45:14.491Z,53.20
2019-05-25T03:50:18.383Z,53.20
2019-05-25T03:55:22.079Z,53.20
2019-05-25T04:00:36.239Z,53.30
2019-05-25T04:05:39.926Z,52.90
2019-05-25T04:10:43.698Z,53.30
2019-05-25T04:15:47.473Z,53.30
2019-05-25T04:20:51.110Z,53.90
2019-05-25T04:25:54.745Z,54.00
2019-05-25T04:30:58.504Z,53.50
2019-05-25T04:36:02.209Z,53.50
2019-05-25T04:41:06.078Z,53.60
2019-05-25T04:46:09.725Z,53.50
2019-05-25T04:51:14.436Z,53.60
2019-05-25T04:56:18.157Z,53.60
2019-05-25T05:01:22.612Z,53.50
2019-05-25T05:06:26.514Z,53.50
2019-05-25T05:11:30.170Z,53.70
2019-05-25T05:16:33.819Z,53.80
2019-05-25T05:21:37.623Z,53.80
2019-05-25T05:26:54.678Z,53.50
2019-05-25T05:31:46.659Z,53.50
2019-05-25T05:36:50.523Z,53.80
2019-05-25T05:41:54.647Z,53.70
2019-05-25T05:46:59.707Z,53.70
2019-05-25T05:52:03.584Z,53.60
2019-05-25T05:57:12.444Z,53.80
2019-05-25T06:02:13.022Z,53.90
2019-05-25T06:07:16.725Z,53.50
2019-05-25T06:12:20.526Z,53.80
2019-05-25T06:17:24.244Z,54.00
2019-05-25T06:22:28.013Z,54.20
2019-05-25T06:27:31.621Z,54.30
2019-05-25T06:32:35.326Z,54.40
2019-05-25T06:37:39.031Z,54.50
2019-05-25T06:42:42.827Z,54.20
2019-05-25T06:47:46.546Z,54.60
2019-05-25T06:52:50.282Z,54.30
2019-05-25T06:57:53.990Z,55.30
2019-05-25T07:02:57.876Z,56.20
2019-05-25T07:08:01.600Z,56.30
2019-05-25T07:13:05.395Z,55.90
2019-05-25T07:18:09.185Z,55.80
2019-05-25T07:23:13.587Z,55.40
2019-05-25T07:28:17.363Z,55.10
2019-05-25T07:33:21.098Z,54.80
2019-05-25T07:38:24.733Z,54.40
2019-05-25T07:43:28.651Z,52.50
2019-05-25T07:48:32.434Z,52.80
2019-05-25T07:53:36.279Z,53.80
2019-05-25T07:58:40.078Z,53.90
2019-05-25T08:03:43.772Z,52.20
2019-05-25T08:08:47.611Z,51.90
2019-05-25T08:13:51.347Z,53.10
2019-05-25T08:18:55.064Z,51.70
2019-05-25T08:23:58.842Z,52.60
2019-05-25T08:29:02.646Z,53.20
2019-05-25T08:34:06.421Z,53.70
2019-05-25T08:39:10.337Z,53.30
2019-05-25T08:44:43.052Z,52.60
2019-05-25T08:49:46.899Z,52.30
2019-05-25T08:54:50.479Z,51.40
2019-05-25T09:05:23.745Z,51.30
2019-05-25T14:35:31.984Z,52.40
2019-05-25T14:40:35.677Z,51.80
2019-05-25T14:45:39.383Z,51.60
2019-05-25T14:50:43.036Z,51.50
2019-05-25T14:55:46.692Z,51.70
2019-05-25T15:00:50.339Z,52.50
2019-05-25T15:05:54.053Z,52.10
